sensor_id;sensor_type;location;lat;lon;timestamp;P1;durP1;ratioP1;P2;durP2;ratioP2
479;SDS011;226;48.606;9.096;2023-05-07T00:00:24;7.53;;;2.93;;
479;SDS011;226;48.606;9.096;2023-05-07T00:02:52;7.30;;;4.17;;
479;SDS011;226;48.606;9.096;2023-05-07T00:05:24;11.33;;;3.07;;
479;SDS011;226;48.606;9.096;2023-05-07T00:07:53;5.40;;;3.20;;
479;SDS011;226;48.606;9.096;2023-05-07T00:10:25;17.20;;;2.97;;
479;SDS011;226;48.606;9.096;2023-05-07T00:12:53;4.33;;;3.10;;
479;SDS011;226;48.606;9.096;2023-05-07T00:15:22;3.90;;;3.27;;
479;SDS011;226;48.606;9.096;2023-05-07T00:17:50;5.07;;;3.47;;
479;SDS011;226;48.606;9.096;2023-05-07T00:20:19;3.27;;;3.00;;
479;SDS011;226;48.606;9.096;2023-05-07T00:22:49;2.93;;;2.47;;
479;SDS011;226;48.606;9.096;2023-05-07T00:25:18;2.80;;;2.60;;
479;SDS011;226;48.606;9.096;2023-05-07T00:27:46;3.80;;;3.40;;
479;SDS011;226;48.606;9.096;2023-05-07T00:30:15;3.47;;;3.10;;
479;SDS011;226;48.606;9.096;2023-05-07T00:32:43;3.70;;;2.43;;
479;SDS011;226;48.606;9.096;2023-05-07T00:35:12;3.40;;;3.10;;
479;SDS011;226;48.606;9.096;2023-05-07T00:37:42;5.33;;;3.80;;
479;SDS011;226;48.606;9.096;2023-05-07T00:40:12;4.70;;;3.47;;
479;SDS011;226;48.606;9.096;2023-05-07T00:42:41;4.90;;;3.67;;
479;SDS011;226;48.606;9.096;2023-05-07T00:45:13;3.20;;;2.70;;
479;SDS011;226;48.606;9.096;2023-05-07T00:47:41;4.80;;;3.13;;
479;SDS011;226;48.606;9.096;2023-05-07T00:50:10;3.53;;;3.10;;
479;SDS011;226;48.606;9.096;2023-05-07T00:52:41;4.67;;;3.23;;
479;SDS011;226;48.606;9.096;2023-05-07T00:55:09;3.13;;;2.83;;
479;SDS011;226;48.606;9.096;2023-05-07T00:57:41;5.77;;;2.80;;
479;SDS011;226;48.606;9.096;2023-05-07T01:00:09;4.87;;;3.47;;
479;SDS011;226;48.606;9.096;2023-05-07T01:02:39;4.93;;;4.37;;
479;SDS011;226;48.606;9.096;2023-05-07T01:05:09;4.07;;;2.93;;
479;SDS011;226;48.606;9.096;2023-05-07T01:07:38;3.20;;;2.90;;
479;SDS011;226;48.606;9.096;2023-05-07T01:10:08;3.77;;;3.20;;
479;SDS011;226;48.606;9.096;2023-05-07T01:12:37;9.03;;;3.50;;
479;SDS011;226;48.606;9.096;2023-05-07T01:15:08;3.00;;;2.40;;
479;SDS011;226;48.606;9.096;2023-05-07T01:17:37;4.13;;;3.27;;
479;SDS011;226;48.606;9.096;2023-05-07T01:20:07;4.17;;;3.77;;
479;SDS011;226;48.606;9.096;2023-05-07T01:22:38;5.13;;;3.87;;
479;SDS011;226;48.606;9.096;2023-05-07T01:25:07;6.00;;;4.10;;
479;SDS011;226;48.606;9.096;2023-05-07T01:27:35;4.70;;;3.57;;
479;SDS011;226;48.606;9.096;2023-05-07T01:30:04;4.67;;;3.53;;
479;SDS011;226;48.606;9.096;2023-05-07T01:32:35;4.80;;;3.27;;
479;SDS011;226;48.606;9.096;2023-05-07T01:35:07;8.63;;;2.57;;
479;SDS011;226;48.606;9.096;2023-05-07T01:37:39;4.67;;;3.20;;
479;SDS011;226;48.606;9.096;2023-05-07T01:40:07;2.50;;;2.27;;
479;SDS011;226;48.606;9.096;2023-05-07T01:42:37;7.20;;;3.17;;
479;SDS011;226;48.606;9.096;2023-05-07T01:45:06;3.77;;;3.20;;
479;SDS011;226;48.606;9.096;2023-05-07T01:47:34;5.07;;;3.60;;
479;SDS011;226;48.606;9.096;2023-05-07T01:50:04;4.03;;;3.63;;
479;SDS011;226;48.606;9.096;2023-05-07T01:52:35;3.13;;;2.67;;
479;SDS011;226;48.606;9.096;2023-05-07T01:55:06;6.40;;;2.90;;
479;SDS011;226;48.606;9.096;2023-05-07T01:57:34;3.97;;;3.57;;
479;SDS011;226;48.606;9.096;2023-05-07T02:00:03;4.07;;;3.47;;
479;SDS011;226;48.606;9.096;2023-05-07T02:02:32;4.27;;;3.37;;
479;SDS011;226;48.606;9.096;2023-05-07T02:05:01;3.23;;;2.90;;
479;SDS011;226;48.606;9.096;2023-05-07T02:07:29;2.93;;;2.73;;
479;SDS011;226;48.606;9.096;2023-05-07T02:09:58;5.47;;;3.70;;
479;SDS011;226;48.606;9.096;2023-05-07T02:12:28;9.83;;;3.47;;
479;SDS011;226;48.606;9.096;2023-05-07T02:14:56;2.97;;;2.77;;
479;SDS011;226;48.606;9.096;2023-05-07T02:17:24;4.50;;;3.00;;
479;SDS011;226;48.606;9.096;2023-05-07T02:19:53;6.27;;;3.97;;
479;SDS011;226;48.606;9.096;2023-05-07T02:22:21;3.50;;;3.20;;
479;SDS011;226;48.606;9.096;2023-05-07T02:24:49;2.93;;;2.63;;
479;SDS011;226;48.606;9.096;2023-05-07T02:27:18;4.30;;;3.90;;
479;SDS011;226;48.606;9.096;2023-05-07T02:29:47;10.20;;;2.57;;
479;SDS011;226;48.606;9.096;2023-05-07T02:32:16;3.77;;;2.93;;
479;SDS011;226;48.606;9.096;2023-05-07T02:34:44;3.97;;;3.53;;
479;SDS011;226;48.606;9.096;2023-05-07T02:37:13;5.03;;;3.73;;
479;SDS011;226;48.606;9.096;2023-05-07T02:39:41;11.73;;;3.80;;
479;SDS011;226;48.606;9.096;2023-05-07T02:42:09;4.03;;;2.87;;
479;SDS011;226;48.606;9.096;2023-05-07T02:44:38;3.67;;;3.03;;
479;SDS011;226;48.606;9.096;2023-05-07T02:47:07;9.23;;;4.37;;
479;SDS011;226;48.606;9.096;2023-05-07T02:49:36;4.30;;;3.30;;
479;SDS011;226;48.606;9.096;2023-05-07T02:52:05;5.03;;;3.67;;
479;SDS011;226;48.606;9.096;2023-05-07T02:54:33;5.80;;;3.70;;
479;SDS011;226;48.606;9.096;2023-05-07T02:57:02;6.23;;;4.17;;
479;SDS011;226;48.606;9.096;2023-05-07T02:59:30;4.00;;;3.30;;
479;SDS011;226;48.606;9.096;2023-05-07T03:01:59;4.50;;;3.63;;
479;SDS011;226;48.606;9.096;2023-05-07T03:04:28;4.27;;;3.87;;
479;SDS011;226;48.606;9.096;2023-05-07T03:06:57;5.80;;;4.40;;
479;SDS011;226;48.606;9.096;2023-05-07T03:09:25;3.47;;;3.17;;
479;SDS011;226;48.606;9.096;2023-05-07T03:11:54;3.83;;;2.83;;
479;SDS011;226;48.606;9.096;2023-05-07T03:14:22;3.83;;;3.07;;
479;SDS011;226;48.606;9.096;2023-05-07T03:16:51;5.70;;;3.20;;
479;SDS011;226;48.606;9.096;2023-05-07T03:19:19;5.90;;;4.17;;
479;SDS011;226;48.606;9.096;2023-05-07T03:21:49;4.53;;;3.10;;
479;SDS011;226;48.606;9.096;2023-05-07T03:24:17;6.13;;;3.80;;
479;SDS011;226;48.606;9.096;2023-05-07T03:26:46;4.57;;;3.23;;
479;SDS011;226;48.606;9.096;2023-05-07T03:29:14;9.50;;;2.90;;
479;SDS011;226;48.606;9.096;2023-05-07T03:31:43;9.90;;;3.50;;
479;SDS011;226;48.606;9.096;2023-05-07T03:34:12;3.13;;;2.93;;
479;SDS011;226;48.606;9.096;2023-05-07T03:36:40;5.40;;;3.47;;
479;SDS011;226;48.606;9.096;2023-05-07T03:39:10;5.33;;;3.53;;
479;SDS011;226;48.606;9.096;2023-05-07T03:41:38;4.80;;;4.03;;
479;SDS011;226;48.606;9.096;2023-05-07T03:44:06;3.93;;;3.17;;
479;SDS011;226;48.606;9.096;2023-05-07T03:46:35;6.73;;;3.33;;
479;SDS011;226;48.606;9.096;2023-05-07T03:49:03;3.40;;;3.07;;
479;SDS011;226;48.606;9.096;2023-05-07T03:51:32;10.00;;;3.50;;
479;SDS011;226;48.606;9.096;2023-05-07T03:54:02;6.37;;;3.53;;
479;SDS011;226;48.606;9.096;2023-05-07T03:56:32;9.90;;;3.47;;
479;SDS011;226;48.606;9.096;2023-05-07T03:59:00;7.83;;;4.77;;
479;SDS011;226;48.606;9.096;2023-05-07T04:01:29;9.80;;;2.77;;
479;SDS011;226;48.606;9.096;2023-05-07T04:03:57;5.60;;;3.67;;
479;SDS011;226;48.606;9.096;2023-05-07T04:06:26;6.60;;;4.43;;
479;SDS011;226;48.606;9.096;2023-05-07T04:08:54;4.50;;;3.60;;
479;SDS011;226;48.606;9.096;2023-05-07T04:11:23;4.07;;;2.73;;
479;SDS011;226;48.606;9.096;2023-05-07T04:13:53;4.13;;;2.97;;
479;SDS011;226;48.606;9.096;2023-05-07T04:16:21;7.37;;;4.10;;
479;SDS011;226;48.606;9.096;2023-05-07T04:18:50;5.20;;;3.07;;
479;SDS011;226;48.606;9.096;2023-05-07T04:21:19;5.53;;;3.83;;
479;SDS011;226;48.606;9.096;2023-05-07T04:23:48;10.47;;;4.37;;
479;SDS011;226;48.606;9.096;2023-05-07T04:26:16;4.30;;;3.20;;
479;SDS011;226;48.606;9.096;2023-05-07T04:28:44;8.57;;;3.87;;
479;SDS011;226;48.606;9.096;2023-05-07T04:31:14;4.97;;;2.87;;
479;SDS011;226;48.606;9.096;2023-05-07T04:33:43;6.60;;;3.30;;
479;SDS011;226;48.606;9.096;2023-05-07T04:36:11;4.90;;;3.50;;
479;SDS011;226;48.606;9.096;2023-05-07T04:38:39;5.73;;;3.13;;
479;SDS011;226;48.606;9.096;2023-05-07T04:41:08;3.40;;;3.10;;
479;SDS011;226;48.606;9.096;2023-05-07T04:43:37;10.37;;;4.10;;
479;SDS011;226;48.606;9.096;2023-05-07T04:46:06;7.50;;;3.87;;
479;SDS011;226;48.606;9.096;2023-05-07T04:48:36;6.47;;;4.23;;
479;SDS011;226;48.606;9.096;2023-05-07T04:51:04;4.83;;;3.90;;
479;SDS011;226;48.606;9.096;2023-05-07T04:53:33;6.37;;;3.63;;
479;SDS011;226;48.606;9.096;2023-05-07T04:56:01;4.47;;;4.07;;
479;SDS011;226;48.606;9.096;2023-05-07T04:58:29;7.87;;;4.33;;
479;SDS011;226;48.606;9.096;2023-05-07T05:00:58;4.13;;;3.73;;
479;SDS011;226;48.606;9.096;2023-05-07T05:03:27;8.60;;;3.73;;
479;SDS011;226;48.606;9.096;2023-05-07T05:05:57;9.30;;;4.17;;
479;SDS011;226;48.606;9.096;2023-05-07T05:08:26;4.10;;;2.77;;
479;SDS011;226;48.606;9.096;2023-05-07T05:10:55;9.23;;;4.13;;
479;SDS011;226;48.606;9.096;2023-05-07T05:13:23;4.80;;;4.07;;
479;SDS011;226;48.606;9.096;2023-05-07T05:15:52;4.00;;;3.43;;
479;SDS011;226;48.606;9.096;2023-05-07T05:18:20;5.37;;;4.17;;
479;SDS011;226;48.606;9.096;2023-05-07T05:20:48;4.93;;;3.93;;
479;SDS011;226;48.606;9.096;2023-05-07T05:23:18;6.87;;;3.70;;
479;SDS011;226;48.606;9.096;2023-05-07T05:25:46;3.93;;;3.53;;
479;SDS011;226;48.606;9.096;2023-05-07T05:28:15;4.10;;;3.37;;
479;SDS011;226;48.606;9.096;2023-05-07T05:30:43;6.00;;;4.20;;
479;SDS011;226;48.606;9.096;2023-05-07T05:33:12;4.87;;;3.60;;
479;SDS011;226;48.606;9.096;2023-05-07T05:35:40;3.73;;;3.37;;
479;SDS011;226;48.606;9.096;2023-05-07T05:38:08;6.50;;;4.33;;
479;SDS011;226;48.606;9.096;2023-05-07T05:40:38;8.43;;;4.73;;
479;SDS011;226;48.606;9.096;2023-05-07T05:43:06;9.10;;;4.93;;
479;SDS011;226;48.606;9.096;2023-05-07T05:45:35;6.20;;;3.90;;
479;SDS011;226;48.606;9.096;2023-05-07T05:48:03;5.20;;;4.00;;
479;SDS011;226;48.606;9.096;2023-05-07T05:50:32;4.30;;;3.90;;
479;SDS011;226;48.606;9.096;2023-05-07T05:53:02;5.30;;;3.30;;
479;SDS011;226;48.606;9.096;2023-05-07T05:55:30;5.00;;;3.63;;
479;SDS011;226;48.606;9.096;2023-05-07T05:58:01;4.67;;;3.73;;
479;SDS011;226;48.606;9.096;2023-05-07T06:00:31;7.07;;;3.93;;
479;SDS011;226;48.606;9.096;2023-05-07T06:02:59;5.80;;;3.37;;
479;SDS011;226;48.606;9.096;2023-05-07T06:05:28;3.90;;;3.27;;
479;SDS011;226;48.606;9.096;2023-05-07T06:07:56;8.93;;;3.67;;
479;SDS011;226;48.606;9.096;2023-05-07T06:10:25;6.30;;;3.57;;
479;SDS011;226;48.606;9.096;2023-05-07T06:12:53;5.53;;;3.27;;
479;SDS011;226;48.606;9.096;2023-05-07T06:15:23;6.43;;;3.20;;
479;SDS011;226;48.606;9.096;2023-05-07T06:17:52;7.07;;;3.63;;
479;SDS011;226;48.606;9.096;2023-05-07T06:20:22;5.67;;;3.47;;
479;SDS011;226;48.606;9.096;2023-05-07T06:22:50;3.37;;;2.70;;
479;SDS011;226;48.606;9.096;2023-05-07T06:25:19;6.80;;;3.90;;
479;SDS011;226;48.606;9.096;2023-05-07T06:27:47;4.07;;;3.40;;
479;SDS011;226;48.606;9.096;2023-05-07T06:30:15;5.57;;;3.60;;
479;SDS011;226;48.606;9.096;2023-05-07T06:32:45;6.17;;;4.23;;
479;SDS011;226;48.606;9.096;2023-05-07T06:35:13;6.50;;;3.80;;
479;SDS011;226;48.606;9.096;2023-05-07T06:37:42;5.10;;;3.50;;
479;SDS011;226;48.606;9.096;2023-05-07T06:40:10;4.23;;;3.53;;
479;SDS011;226;48.606;9.096;2023-05-07T06:42:39;8.03;;;3.07;;
479;SDS011;226;48.606;9.096;2023-05-07T06:45:08;9.27;;;4.60;;
479;SDS011;226;48.606;9.096;2023-05-07T06:47:36;4.27;;;2.87;;
479;SDS011;226;48.606;9.096;2023-05-07T06:50:07;6.30;;;3.23;;
479;SDS011;226;48.606;9.096;2023-05-07T06:52:36;4.23;;;2.90;;
479;SDS011;226;48.606;9.096;2023-05-07T06:55:05;4.33;;;2.97;;
479;SDS011;226;48.606;9.096;2023-05-07T06:57:34;3.63;;;2.90;;
479;SDS011;226;48.606;9.096;2023-05-07T07:00:02;3.87;;;3.13;;
479;SDS011;226;48.606;9.096;2023-05-07T07:02:33;3.57;;;3.13;;
479;SDS011;226;48.606;9.096;2023-05-07T07:05:01;4.63;;;3.07;;
479;SDS011;226;48.606;9.096;2023-05-07T07:07:31;4.13;;;3.40;;
479;SDS011;226;48.606;9.096;2023-05-07T07:10:00;3.90;;;3.23;;
479;SDS011;226;48.606;9.096;2023-05-07T07:12:28;4.50;;;3.80;;
479;SDS011;226;48.606;9.096;2023-05-07T07:14:56;4.13;;;2.83;;
479;SDS011;226;48.606;9.096;2023-05-07T07:17:25;2.87;;;2.67;;
479;SDS011;226;48.606;9.096;2023-05-07T07:19:53;7.27;;;3.53;;
479;SDS011;226;48.606;9.096;2023-05-07T07:22:22;4.07;;;2.60;;
479;SDS011;226;48.606;9.096;2023-05-07T07:24:51;3.70;;;2.67;;
479;SDS011;226;48.606;9.096;2023-05-07T07:27:20;5.30;;;3.70;;
479;SDS011;226;48.606;9.096;2023-05-07T07:29:48;2.77;;;2.57;;
479;SDS011;226;48.606;9.096;2023-05-07T07:32:16;2.47;;;2.27;;
479;SDS011;226;48.606;9.096;2023-05-07T07:34:45;3.20;;;2.90;;
479;SDS011;226;48.606;9.096;2023-05-07T07:37:14;3.57;;;3.27;;
479;SDS011;226;48.606;9.096;2023-05-07T07:39:42;4.57;;;2.93;;
479;SDS011;226;48.606;9.096;2023-05-07T07:42:12;2.83;;;2.63;;
479;SDS011;226;48.606;9.096;2023-05-07T07:44:40;2.80;;;2.60;;
479;SDS011;226;48.606;9.096;2023-05-07T07:47:08;4.90;;;2.77;;
479;SDS011;226;48.606;9.096;2023-05-07T07:49:37;2.30;;;2.10;;
479;SDS011;226;48.606;9.096;2023-05-07T07:52:05;3.60;;;2.70;;
479;SDS011;226;48.606;9.096;2023-05-07T07:54:34;6.23;;;2.80;;
479;SDS011;226;48.606;9.096;2023-05-07T07:57:02;3.00;;;2.80;;
479;SDS011;226;48.606;9.096;2023-05-07T07:59:32;3.20;;;2.90;;
479;SDS011;226;48.606;9.096;2023-05-07T08:02:00;3.63;;;3.30;;
479;SDS011;226;48.606;9.096;2023-05-07T08:04:28;4.73;;;3.00;;
479;SDS011;226;48.606;9.096;2023-05-07T08:06:59;3.60;;;2.63;;
479;SDS011;226;48.606;9.096;2023-05-07T08:09:27;2.77;;;2.50;;
479;SDS011;226;48.606;9.096;2023-05-07T08:11:56;4.43;;;2.90;;
479;SDS011;226;48.606;9.096;2023-05-07T08:14:24;2.77;;;2.43;;
479;SDS011;226;48.606;9.096;2023-05-07T08:16:55;3.13;;;2.93;;
479;SDS011;226;48.606;9.096;2023-05-07T08:19:24;2.57;;;2.07;;
479;SDS011;226;48.606;9.096;2023-05-07T08:21:52;6.70;;;3.37;;
479;SDS011;226;48.606;9.096;2023-05-07T08:24:21;3.50;;;2.80;;
479;SDS011;226;48.606;9.096;2023-05-07T08:26:49;2.70;;;2.50;;
479;SDS011;226;48.606;9.096;2023-05-07T08:29:18;6.00;;;2.63;;
479;SDS011;226;48.606;9.096;2023-05-07T08:31:46;4.43;;;2.50;;
479;SDS011;226;48.606;9.096;2023-05-07T08:34:16;3.10;;;2.77;;
479;SDS011;226;48.606;9.096;2023-05-07T08:36:44;2.33;;;2.13;;
479;SDS011;226;48.606;9.096;2023-05-07T08:39:14;7.60;;;2.43;;
479;SDS011;226;48.606;9.096;2023-05-07T08:41:44;3.97;;;2.97;;
479;SDS011;226;48.606;9.096;2023-05-07T08:44:13;2.37;;;2.27;;
479;SDS011;226;48.606;9.096;2023-05-07T08:46:41;3.47;;;2.50;;
479;SDS011;226;48.606;9.096;2023-05-07T08:49:13;3.50;;;2.17;;
479;SDS011;226;48.606;9.096;2023-05-07T08:51:43;4.50;;;2.17;;
479;SDS011;226;48.606;9.096;2023-05-07T08:54:12;3.23;;;2.57;;
479;SDS011;226;48.606;9.096;2023-05-07T08:56:44;3.17;;;2.60;;
479;SDS011;226;48.606;9.096;2023-05-07T08:59:12;4.83;;;2.70;;
479;SDS011;226;48.606;9.096;2023-05-07T09:01:40;2.30;;;2.20;;
479;SDS011;226;48.606;9.096;2023-05-07T09:04:09;2.50;;;2.30;;
479;SDS011;226;48.606;9.096;2023-05-07T09:06:39;6.70;;;2.03;;
479;SDS011;226;48.606;9.096;2023-05-07T09:09:09;2.80;;;2.60;;
479;SDS011;226;48.606;9.096;2023-05-07T09:11:42;4.10;;;2.23;;
479;SDS011;226;48.606;9.096;2023-05-07T09:14:10;2.47;;;2.27;;
479;SDS011;226;48.606;9.096;2023-05-07T09:16:38;3.90;;;3.00;;
479;SDS011;226;48.606;9.096;2023-05-07T09:19:07;3.50;;;2.60;;
479;SDS011;226;48.606;9.096;2023-05-07T09:21:36;4.90;;;2.50;;
479;SDS011;226;48.606;9.096;2023-05-07T09:24:04;4.17;;;2.43;;
479;SDS011;226;48.606;9.096;2023-05-07T09:26:34;3.30;;;2.97;;
479;SDS011;226;48.606;9.096;2023-05-07T09:29:02;2.80;;;2.50;;
479;SDS011;226;48.606;9.096;2023-05-07T09:31:31;4.30;;;2.77;;
479;SDS011;226;48.606;9.096;2023-05-07T09:33:59;2.57;;;2.20;;
479;SDS011;226;48.606;9.096;2023-05-07T09:36:27;3.17;;;2.70;;
479;SDS011;226;48.606;9.096;2023-05-07T09:38:56;2.90;;;2.70;;
479;SDS011;226;48.606;9.096;2023-05-07T09:41:28;3.60;;;2.97;;
479;SDS011;226;48.606;9.096;2023-05-07T09:43:59;2.60;;;2.40;;
479;SDS011;226;48.606;9.096;2023-05-07T09:46:29;2.70;;;2.37;;
479;SDS011;226;48.606;9.096;2023-05-07T09:48:58;3.40;;;2.57;;
479;SDS011;226;48.606;9.096;2023-05-07T09:51:29;3.17;;;2.87;;
479;SDS011;226;48.606;9.096;2023-05-07T09:53:57;2.87;;;2.67;;
479;SDS011;226;48.606;9.096;2023-05-07T09:56:27;2.30;;;2.20;;
479;SDS011;226;48.606;9.096;2023-05-07T09:58:55;3.00;;;2.60;;
479;SDS011;226;48.606;9.096;2023-05-07T10:01:25;2.97;;;2.33;;
479;SDS011;226;48.606;9.096;2023-05-07T10:03:55;2.73;;;2.53;;
479;SDS011;226;48.606;9.096;2023-05-07T10:06:24;2.93;;;2.73;;
479;SDS011;226;48.606;9.096;2023-05-07T10:08:53;3.80;;;2.40;;
479;SDS011;226;48.606;9.096;2023-05-07T10:11:22;3.63;;;3.33;;
479;SDS011;226;48.606;9.096;2023-05-07T10:13:50;3.33;;;2.50;;
479;SDS011;226;48.606;9.096;2023-05-07T10:16:20;4.33;;;2.27;;
479;SDS011;226;48.606;9.096;2023-05-07T10:18:50;2.20;;;1.90;;
479;SDS011;226;48.606;9.096;2023-05-07T10:21:19;6.77;;;2.80;;
479;SDS011;226;48.606;9.096;2023-05-07T10:23:48;4.40;;;2.87;;
479;SDS011;226;48.606;9.096;2023-05-07T10:26:18;2.50;;;2.30;;
479;SDS011;226;48.606;9.096;2023-05-07T10:28:49;5.33;;;2.33;;
479;SDS011;226;48.606;9.096;2023-05-07T10:31:22;2.77;;;2.57;;
479;SDS011;226;48.606;9.096;2023-05-07T10:33:55;3.03;;;2.40;;
479;SDS011;226;48.606;9.096;2023-05-07T10:36:24;2.93;;;2.47;;
479;SDS011;226;48.606;9.096;2023-05-07T10:38:54;2.43;;;2.23;;
479;SDS011;226;48.606;9.096;2023-05-07T10:41:22;3.37;;;3.07;;
479;SDS011;226;48.606;9.096;2023-05-07T10:43:51;10.53;;;2.33;;
479;SDS011;226;48.606;9.096;2023-05-07T10:46:20;2.13;;;2.03;;
479;SDS011;226;48.606;9.096;2023-05-07T10:49:09;2.33;;;2.23;;
479;SDS011;226;48.606;9.096;2023-05-07T10:51:38;2.13;;;2.03;;
479;SDS011;226;48.606;9.096;2023-05-07T10:54:18;3.00;;;2.70;;
479;SDS011;226;48.606;9.096;2023-05-07T10:56:46;3.20;;;2.33;;
479;SDS011;226;48.606;9.096;2023-05-07T10:59:33;3.53;;;1.87;;
479;SDS011;226;48.606;9.096;2023-05-07T11:02:08;2.40;;;2.20;;
479;SDS011;226;48.606;9.096;2023-05-07T11:04:39;2.27;;;1.97;;
479;SDS011;226;48.606;9.096;2023-05-07T11:09:58;2.50;;;1.80;;
479;SDS011;226;48.606;9.096;2023-05-07T11:12:47;1.97;;;1.80;;
479;SDS011;226;48.606;9.096;2023-05-07T11:15:15;4.53;;;2.07;;
479;SDS011;226;48.606;9.096;2023-05-07T11:18:00;2.90;;;2.40;;
479;SDS011;226;48.606;9.096;2023-05-07T11:20:48;3.37;;;2.13;;
479;SDS011;226;48.606;9.096;2023-05-07T11:26:05;2.23;;;2.00;;
479;SDS011;226;48.606;9.096;2023-05-07T11:28:36;1.90;;;1.63;;
479;SDS011;226;48.606;9.096;2023-05-07T11:31:04;4.20;;;1.90;;
479;SDS011;226;48.606;9.096;2023-05-07T11:33:33;3.60;;;2.23;;
479;SDS011;226;48.606;9.096;2023-05-07T11:36:04;2.00;;;1.90;;
479;SDS011;226;48.606;9.096;2023-05-07T11:38:34;2.10;;;2.00;;
479;SDS011;226;48.606;9.096;2023-05-07T11:41:03;2.23;;;2.07;;
479;SDS011;226;48.606;9.096;2023-05-07T11:43:31;2.73;;;2.03;;
479;SDS011;226;48.606;9.096;2023-05-07T11:46:05;3.30;;;2.40;;
479;SDS011;226;48.606;9.096;2023-05-07T11:48:34;1.83;;;1.73;;
479;SDS011;226;48.606;9.096;2023-05-07T11:51:05;2.00;;;1.90;;
479;SDS011;226;48.606;9.096;2023-05-07T11:53:35;2.80;;;2.40;;
479;SDS011;226;48.606;9.096;2023-05-07T11:56:07;2.00;;;1.90;;
479;SDS011;226;48.606;9.096;2023-05-07T11:58:36;2.03;;;1.93;;
479;SDS011;226;48.606;9.096;2023-05-07T12:01:06;2.80;;;2.60;;
479;SDS011;226;48.606;9.096;2023-05-07T12:03:35;4.20;;;2.10;;
479;SDS011;226;48.606;9.096;2023-05-07T12:06:06;3.00;;;2.43;;
479;SDS011;226;48.606;9.096;2023-05-07T12:08:36;4.23;;;1.77;;
479;SDS011;226;48.606;9.096;2023-05-07T12:11:06;2.13;;;1.40;;
479;SDS011;226;48.606;9.096;2023-05-07T12:13:35;2.67;;;2.17;;
479;SDS011;226;48.606;9.096;2023-05-07T12:16:05;2.60;;;2.40;;
479;SDS011;226;48.606;9.096;2023-05-07T12:18:34;2.30;;;2.10;;
479;SDS011;226;48.606;9.096;2023-05-07T12:21:04;8.00;;;2.30;;
479;SDS011;226;48.606;9.096;2023-05-07T12:23:34;2.60;;;2.30;;
479;SDS011;226;48.606;9.096;2023-05-07T12:26:03;1.73;;;1.63;;
479;SDS011;226;48.606;9.096;2023-05-07T12:28:36;2.83;;;2.63;;
479;SDS011;226;48.606;9.096;2023-05-07T12:31:05;5.07;;;2.80;;
479;SDS011;226;48.606;9.096;2023-05-07T12:33:34;2.17;;;2.03;;
479;SDS011;226;48.606;9.096;2023-05-07T12:36:05;6.03;;;3.20;;
479;SDS011;226;48.606;9.096;2023-05-07T12:38:36;5.80;;;3.57;;
479;SDS011;226;48.606;9.096;2023-05-07T12:41:07;3.53;;;2.90;;
479;SDS011;226;48.606;9.096;2023-05-07T12:43:36;4.70;;;2.83;;
479;SDS011;226;48.606;9.096;2023-05-07T12:46:07;5.40;;;2.60;;
479;SDS011;226;48.606;9.096;2023-05-07T12:48:43;3.80;;;2.70;;
479;SDS011;226;48.606;9.096;2023-05-07T12:51:11;3.40;;;3.10;;
479;SDS011;226;48.606;9.096;2023-05-07T12:53:42;6.53;;;2.70;;
479;SDS011;226;48.606;9.096;2023-05-07T12:56:11;2.70;;;2.50;;
479;SDS011;226;48.606;9.096;2023-05-07T12:58:40;6.00;;;2.60;;
479;SDS011;226;48.606;9.096;2023-05-07T13:01:08;3.77;;;2.37;;
479;SDS011;226;48.606;9.096;2023-05-07T13:03:41;4.10;;;3.47;;
479;SDS011;226;48.606;9.096;2023-05-07T13:06:16;4.90;;;2.57;;
479;SDS011;226;48.606;9.096;2023-05-07T13:08:46;2.80;;;2.60;;
479;SDS011;226;48.606;9.096;2023-05-07T13:11:15;3.67;;;2.10;;
479;SDS011;226;48.606;9.096;2023-05-07T13:13:43;3.00;;;2.80;;
479;SDS011;226;48.606;9.096;2023-05-07T13:16:11;2.53;;;2.20;;
479;SDS011;226;48.606;9.096;2023-05-07T13:18:40;3.37;;;2.50;;
479;SDS011;226;48.606;9.096;2023-05-07T13:21:10;3.93;;;3.00;;
479;SDS011;226;48.606;9.096;2023-05-07T13:23:40;10.93;;;2.70;;
479;SDS011;226;48.606;9.096;2023-05-07T13:26:09;2.53;;;2.40;;
479;SDS011;226;48.606;9.096;2023-05-07T13:28:52;4.90;;;2.90;;
479;SDS011;226;48.606;9.096;2023-05-07T13:31:20;3.37;;;2.60;;
479;SDS011;226;48.606;9.096;2023-05-07T13:33:49;3.83;;;3.17;;
479;SDS011;226;48.606;9.096;2023-05-07T13:36:18;5.50;;;3.00;;
479;SDS011;226;48.606;9.096;2023-05-07T13:38:47;3.67;;;2.90;;
479;SDS011;226;48.606;9.096;2023-05-07T13:41:17;9.63;;;3.10;;
479;SDS011;226;48.606;9.096;2023-05-07T13:43:46;5.20;;;3.83;;
479;SDS011;226;48.606;9.096;2023-05-07T13:46:15;6.47;;;3.43;;
479;SDS011;226;48.606;9.096;2023-05-07T13:48:43;4.60;;;2.60;;
479;SDS011;226;48.606;9.096;2023-05-07T13:51:12;6.27;;;3.60;;
479;SDS011;226;48.606;9.096;2023-05-07T13:53:40;6.07;;;4.07;;
479;SDS011;226;48.606;9.096;2023-05-07T13:56:09;4.93;;;3.40;;
479;SDS011;226;48.606;9.096;2023-05-07T13:58:38;10.63;;;4.17;;
479;SDS011;226;48.606;9.096;2023-05-07T14:01:24;7.50;;;3.53;;
479;SDS011;226;48.606;9.096;2023-05-07T14:03:53;6.43;;;4.20;;
479;SDS011;226;48.606;9.096;2023-05-07T14:06:21;4.33;;;2.90;;
479;SDS011;226;48.606;9.096;2023-05-07T14:08:49;2.97;;;2.70;;
479;SDS011;226;48.606;9.096;2023-05-07T14:11:18;6.10;;;4.23;;
479;SDS011;226;48.606;9.096;2023-05-07T14:13:48;6.10;;;3.40;;
479;SDS011;226;48.606;9.096;2023-05-07T14:16:16;15.17;;;3.97;;
479;SDS011;226;48.606;9.096;2023-05-07T14:18:45;5.30;;;2.90;;
479;SDS011;226;48.606;9.096;2023-05-07T14:21:13;9.37;;;4.20;;
479;SDS011;226;48.606;9.096;2023-05-07T14:23:41;7.20;;;3.60;;
479;SDS011;226;48.606;9.096;2023-05-07T14:26:10;6.40;;;4.97;;
479;SDS011;226;48.606;9.096;2023-05-07T14:28:38;7.67;;;4.43;;
479;SDS011;226;48.606;9.096;2023-05-07T14:31:13;13.80;;;3.73;;
479;SDS011;226;48.606;9.096;2023-05-07T14:33:42;5.90;;;4.07;;
479;SDS011;226;48.606;9.096;2023-05-07T14:36:10;8.60;;;3.70;;
479;SDS011;226;48.606;9.096;2023-05-07T14:38:38;8.40;;;4.00;;
479;SDS011;226;48.606;9.096;2023-05-07T14:41:07;5.93;;;3.27;;
479;SDS011;226;48.606;9.096;2023-05-07T14:43:35;5.40;;;3.97;;
479;SDS011;226;48.606;9.096;2023-05-07T14:46:03;7.40;;;4.30;;
479;SDS011;226;48.606;9.096;2023-05-07T14:48:33;9.67;;;4.47;;
479;SDS011;226;48.606;9.096;2023-05-07T14:51:02;2.90;;;2.40;;
479;SDS011;226;48.606;9.096;2023-05-07T14:53:30;4.20;;;2.87;;
479;SDS011;226;48.606;9.096;2023-05-07T14:55:59;4.70;;;3.37;;
479;SDS011;226;48.606;9.096;2023-05-07T14:58:27;5.03;;;3.43;;
479;SDS011;226;48.606;9.096;2023-05-07T15:00:55;3.60;;;3.30;;
479;SDS011;226;48.606;9.096;2023-05-07T15:03:24;5.90;;;3.70;;
479;SDS011;226;48.606;9.096;2023-05-07T15:05:53;4.73;;;3.13;;
479;SDS011;226;48.606;9.096;2023-05-07T15:08:22;3.80;;;3.50;;
479;SDS011;226;48.606;9.096;2023-05-07T15:10:50;5.80;;;3.70;;
479;SDS011;226;48.606;9.096;2023-05-07T15:13:19;10.20;;;4.43;;
479;SDS011;226;48.606;9.096;2023-05-07T15:15:47;6.37;;;4.13;;
479;SDS011;226;48.606;9.096;2023-05-07T15:18:16;5.93;;;4.10;;
479;SDS011;226;48.606;9.096;2023-05-07T15:20:48;8.40;;;4.10;;
479;SDS011;226;48.606;9.096;2023-05-07T15:23:20;4.23;;;3.27;;
479;SDS011;226;48.606;9.096;2023-05-07T15:25:50;5.47;;;4.13;;
479;SDS011;226;48.606;9.096;2023-05-07T15:28:20;5.60;;;3.27;;
479;SDS011;226;48.606;9.096;2023-05-07T15:30:50;6.77;;;3.40;;
479;SDS011;226;48.606;9.096;2023-05-07T15:33:21;5.27;;;3.80;;
479;SDS011;226;48.606;9.096;2023-05-07T15:35:51;5.83;;;4.10;;
479;SDS011;226;48.606;9.096;2023-05-07T15:38:26;4.57;;;3.17;;
479;SDS011;226;48.606;9.096;2023-05-07T15:40:57;6.20;;;3.67;;
479;SDS011;226;48.606;9.096;2023-05-07T15:43:29;4.57;;;2.93;;
479;SDS011;226;48.606;9.096;2023-05-07T15:45:57;3.00;;;2.30;;
479;SDS011;226;48.606;9.096;2023-05-07T15:48:28;4.20;;;3.20;;
479;SDS011;226;48.606;9.096;2023-05-07T15:50:56;3.23;;;3.00;;
479;SDS011;226;48.606;9.096;2023-05-07T15:53:26;4.07;;;2.93;;
479;SDS011;226;48.606;9.096;2023-05-07T15:55:56;5.20;;;3.43;;
479;SDS011;226;48.606;9.096;2023-05-07T15:58:25;3.83;;;3.40;;
479;SDS011;226;48.606;9.096;2023-05-07T16:00:54;3.17;;;2.87;;
479;SDS011;226;48.606;9.096;2023-05-07T16:03:22;4.80;;;3.43;;